Wolfeboro Falls, New Hampshire
Current Conditions -  °F | °C
As of 5:35 AM on Monday 20 Oct 2014 (Local Time) from KLCI Reporting Station
Clear Clear  
Wind Chill: 31°   Ceiling: Unl
Heat Index: 37°   Visibility: 10mi
Dew Point: 25°   Wind: 8mph
Humidity: 60%   Direction: 250°WSW
Pressure: 29.94"   Gusts: NA
Location:  43.59°N, 71.21°W
Report Text: KLCI 200935Z AUTO 25007KT 10SM CLR 03/M04 A2994 RMK AO1
Loading
Personal Weather Stations






























Interactive Weather Map
Tropical Storm Tracking
New forecast layout! Learn more

10-Day Weather Forecast

Advertisements
Track Severe Weather on mobile